Time;durP1;ratioP1;P1;durP2;ratioP2;P2;SDS_P1;SDS_P2;PMS_P1;PMS_P2;Temp;Humidity;BMP_temperature;BMP_pressure;BME280_temperature;BME280_humidity;BME280_pressure;Samples;Min_cycle;Max_cycle;Signal;HPM_P1;HPM_P2
2022/05/28 00:01:02;;;;;;;9.57;3.47;;;14.70;96.30;;;;;;5090303;28;20028;-84
2022/05/28 00:03:29;;;;;;;7.72;2.50;;;17.30;97.20;;;;;;5051793;28;20033;-83
2022/05/28 00:05:55;;;;;;;10.88;3.33;;;;;;;;;;5075483;28;20028;-85
2022/05/28 00:08:21;;;;;;;9.93;2.85;;;14.70;96.40;;;;;;5083646;28;20089;-81
2022/05/28 00:10:47;;;;;;;8.88;2.92;;;15.80;96.70;;;;;;5081788;28;20028;-82
2022/05/28 00:13:13;;;;;;;9.90;2.70;;;14.50;96.20;;;;;;5096400;28;20073;-82
2022/05/28 00:15:41;;;;;;;7.45;2.38;;;14.60;96.40;;;;;;5087985;28;20028;-82
2022/05/28 00:18:07;;;;;;;9.25;2.42;;;14.50;96.10;;;;;;5083732;28;20028;-84
2022/05/28 00:20:33;;;;;;;7.90;3.13;;;14.40;96.40;;;;;;5115004;28;20061;-85
2022/05/28 00:22:59;;;;;;;7.38;2.38;;;14.40;96.60;;;;;;5075354;28;20056;-85
2022/05/28 00:25:25;;;;;;;10.93;2.92;;;14.30;96.70;;;;;;5068116;28;20025;-83
2022/05/28 00:27:50;;;;;;;8.05;2.60;;;14.20;96.80;;;;;;5067031;28;20093;-85
2022/05/28 00:30:17;;;;;;;10.77;2.67;;;;;;;;;;5079812;28;20024;-83
2022/05/28 00:32:43;;;;;;;10.80;2.70;;;14.30;96.90;;;;;;5068938;28;20021;-82
2022/05/28 00:35:13;;;;;;;8.07;2.65;;;16.70;97.80;;;;;;5090842;28;20115;-82
2022/05/28 00:37:38;;;;;;;6.13;2.70;;;14.20;97.40;;;;;;5094464;28;20028;-84
2022/05/28 00:40:07;;;;;;;10.18;3.35;;;16.00;98.10;;;;;;5078419;28;20277;-83
2022/05/28 00:42:33;;;;;;;7.72;2.90;;;14.00;98.00;;;;;;5090509;28;20479;-81
2022/05/28 00:44:58;;;;;;;10.35;3.20;;;13.90;98.00;;;;;;5080195;28;20039;-81
2022/05/28 00:47:25;;;;;;;5.93;3.03;;;13.90;98.20;;;;;;5081338;28;20052;-85
2022/05/28 00:49:51;;;;;;;8.32;3.13;;;13.90;98.30;;;;;;5083804;28;20024;-82
2022/05/28 00:52:20;;;;;;;8.50;2.78;;;13.90;98.50;;;;;;5093628;28;20020;-80
2022/05/28 00:54:48;;;;;;;9.88;3.20;;;13.70;98.40;;;;;;5087402;28;20016;-83
2022/05/28 00:57:15;;;;;;;7.65;2.50;;;13.60;98.60;;;;;;5072187;28;20005;-80
2022/05/28 00:59:42;;;;;;;12.55;2.83;;;13.60;98.50;;;;;;5090364;28;20043;-81
2022/05/28 01:02:47;;;;;;;8.35;2.42;;;13.60;98.50;;;;;;5096332;28;20031;-83
2022/05/28 01:05:34;;;;;;;7.70;2.63;;;13.60;98.30;;;;;;5100817;28;20036;-83
2022/05/28 01:08:21;;;;;;;18.05;5.72;;;13.40;97.80;;;;;;5079587;28;20024;-80
2022/05/28 01:11:10;;;;;;;8.88;2.35;;;13.40;98.20;;;;;;5094273;28;20032;-79
2022/05/28 01:13:41;;;;;;;11.10;3.72;;;13.40;97.90;;;;;;5075788;28;20025;-84
2022/05/28 01:16:16;;;;;;;9.75;3.13;;;13.30;98.10;;;;;;5064969;28;20082;-83
2022/05/28 01:18:57;;;;;;;9.77;2.70;;;13.20;98.30;;;;;;5077379;28;20024;-85
2022/05/28 01:21:51;;;;;;;9.48;2.58;;;13.20;98.60;;;;;;5078926;28;20032;-84
2022/05/28 01:24:59;;;;;;;6.88;2.40;;;13.10;98.70;;;;;;5090897;28;20402;-85
2022/05/28 01:27:31;;;;;;;9.75;2.40;;;13.00;98.90;;;;;;5069139;28;20024;-87
2022/05/28 01:30:02;;;;;;;7.70;2.70;;;13.00;98.90;;;;;;5072045;28;20025;-83
2022/05/28 01:32:30;;;;;;;10.52;2.58;;;13.70;99.20;;;;;;5077985;28;20016;-84
2022/05/28 01:34:58;;;;;;;8.07;2.42;;;12.90;99.10;;;;;;5074458;28;20019;-82
2022/05/28 01:37:24;;;;;;;7.45;2.22;;;12.90;99.10;;;;;;5078442;28;20445;-85
2022/05/28 01:39:51;;;;;;;9.70;2.40;;;15.00;99.70;;;;;;5080657;28;20111;-83
2022/05/28 01:42:18;;;;;;;7.65;2.22;;;14.50;99.60;;;;;;5086382;28;20024;-85
2022/05/28 01:44:47;;;;;;;7.75;2.25;;;12.80;99.10;;;;;;5076540;28;20040;-85
2022/05/28 01:47:15;;;;;;;10.52;2.47;;;14.00;99.40;;;;;;5092185;28;20027;-85
2022/05/28 01:49:41;;;;;;;7.28;2.58;;;12.80;99.10;;;;;;5064281;28;20071;-82
2022/05/28 01:52:08;;;;;;;7.05;2.50;;;12.80;99.20;;;;;;5093794;28;20083;-81
2022/05/28 01:54:40;;;;;;;5.78;1.92;;;12.70;99.40;;;;;;5071115;28;20035;-85
2022/05/28 01:57:06;;;;;;;6.75;2.13;;;13.20;99.70;;;;;;5088362;28;20024;-83
2022/05/28 01:59:34;;;;;;;8.13;2.20;;;12.60;99.90;;;;;;5077604;28;20035;-83
2022/05/28 02:02:03;;;;;;;10.48;3.03;;;14.00;99.90;;;;;;5094017;28;20024;-83
2022/05/28 02:04:30;;;;;;;9.02;2.55;;;13.70;99.90;;;;;;5068730;28;20028;-84
2022/05/28 02:06:56;;;;;;;8.68;2.65;;;12.40;99.90;;;;;;5071021;28;20048;-81
2022/05/28 02:09:27;;;;;;;9.63;2.60;;;13.20;99.90;;;;;;5068072;28;20105;-84
2022/05/28 02:12:08;;;;;;;9.30;2.95;;;13.00;99.90;;;;;;5075466;28;20399;-83
2022/05/28 02:14:33;;;;;;;;;;;12.10;99.90;;;;;;5076876;28;20028;-84
2022/05/28 02:17:14;;;;;;;8.30;2.88;;;12.10;99.90;;;;;;5074609;28;20264;-82
2022/05/28 02:19:39;;;;;;;10.50;2.63;;;12.10;99.90;;;;;;5064525;28;20035;-82
2022/05/28 02:22:12;;;;;;;15.80;4.75;;;12.00;99.90;;;;;;5089428;28;20024;-83
2022/05/28 02:24:55;;;;;;;10.15;2.33;;;11.90;99.90;;;;;;5072232;28;20028;-80
2022/05/28 02:27:24;;;;;;;10.02;2.58;;;11.90;99.90;;;;;;5106454;28;20027;-84
2022/05/28 02:29:50;;;;;;;6.95;1.95;;;11.80;99.90;;;;;;5099289;28;20024;-80
2022/05/28 02:32:22;;;;;;;6.47;2.38;;;11.80;99.90;;;;;;5097382;28;20031;-82
2022/05/28 02:34:50;;;;;;;9.18;2.78;;;11.80;99.90;;;;;;5088763;28;20029;-82
2022/05/28 02:37:20;;;;;;;8.48;2.78;;;11.70;99.90;;;;;;5066445;28;20032;-81
2022/05/28 02:39:45;;;;;;;7.13;2.42;;;11.60;99.90;;;;;;5091327;28;20112;-84
2022/05/28 02:42:11;;;;;;;5.35;2.30;;;12.30;99.90;;;;;;5084604;28;20503;-82
2022/05/28 02:44:37;;;;;;;6.00;2.25;;;11.50;99.90;;;;;;5073336;28;20024;-85
2022/05/28 02:47:04;;;;;;;7.80;2.28;;;11.50;99.90;;;;;;5080708;28;20025;-83
2022/05/28 02:49:29;;;;;;;6.88;2.15;;;11.40;99.90;;;;;;5072626;28;20033;-85
2022/05/28 02:51:55;;;;;;;6.72;2.50;;;11.40;99.90;;;;;;5064014;28;20401;-86
2022/05/28 02:54:22;;;;;;;10.68;2.58;;;11.40;99.90;;;;;;5071363;28;20054;-83
2022/05/28 02:56:48;;;;;;;9.88;2.97;;;11.30;99.90;;;;;;5088463;28;20044;-84
2022/05/28 02:59:14;;;;;;;7.25;2.47;;;11.20;99.90;;;;;;5071834;28;20411;-84
2022/05/28 03:01:40;;;;;;;9.00;3.00;;;;;;;;;;5090276;28;20032;-83
2022/05/28 03:04:07;;;;;;;7.32;2.53;;;11.20;99.90;;;;;;5072490;28;20029;-83
2022/05/28 03:06:35;;;;;;;8.63;2.50;;;13.10;99.90;;;;;;5068727;28;20024;-83
2022/05/28 03:09:01;;;;;;;6.43;2.53;;;13.00;99.90;;;;;;5085230;28;20016;-83
2022/05/28 03:11:27;;;;;;;6.70;2.67;;;11.10;99.90;;;;;;5086213;28;20204;-83
2022/05/28 03:13:53;;;;;;;7.60;2.83;;;;;;;;;;5086996;28;20034;-82
2022/05/28 03:16:18;;;;;;;5.82;2.38;;;11.00;99.90;;;;;;5066822;28;20024;-81
2022/05/28 03:18:44;;;;;;;10.32;2.40;;;11.00;99.90;;;;;;5075343;28;20027;-84
2022/05/28 03:21:10;;;;;;;7.57;2.38;;;10.90;99.90;;;;;;5069123;28;20070;-84
2022/05/28 03:23:35;;;;;;;10.05;3.00;;;10.80;99.90;;;;;;5075790;28;20027;-83
2022/05/28 03:26:21;;;;;;;7.25;2.13;;;10.80;99.90;;;;;;5070314;28;20021;-82
2022/05/28 03:28:49;;;;;;;6.88;2.60;;;10.90;99.90;;;;;;5087569;28;20028;-82
2022/05/28 03:31:14;;;;;;;7.15;2.70;;;10.70;99.90;;;;;;5069695;28;20081;-83
2022/05/28 03:33:40;;;;;;;8.93;2.60;;;11.40;99.90;;;;;;5091493;28;20107;-84
2022/05/28 03:36:06;;;;;;;10.70;2.88;;;10.70;99.90;;;;;;5054404;28;20111;-85
2022/05/28 03:38:32;;;;;;;9.80;2.53;;;;;;;;;;5081589;28;20058;-82
2022/05/28 03:40:58;;;;;;;9.35;2.67;;;10.70;99.90;;;;;;5074777;28;20087;-86
2022/05/28 03:43:25;;;;;;;9.25;2.70;;;10.60;99.90;;;;;;5074006;28;20453;-83
2022/05/28 03:45:51;;;;;;;6.57;2.28;;;12.70;99.90;;;;;;5064910;28;20496;-85
2022/05/28 03:48:17;;;;;;;9.60;2.50;;;10.50;99.90;;;;;;5072542;28;20027;-83
2022/05/28 03:50:43;;;;;;;5.53;2.10;;;10.50;99.90;;;;;;5070143;28;20036;-83
2022/05/28 03:53:09;;;;;;;5.75;2.65;;;10.40;99.90;;;;;;5075501;28;20613;-83
2022/05/28 03:55:36;;;;;;;7.95;2.15;;;10.40;99.90;;;;;;5085912;28;20055;-82
2022/05/28 03:58:02;;;;;;;7.82;2.28;;;12.80;99.90;;;;;;5074204;28;20306;-82
2022/05/28 04:00:29;;;;;;;7.05;2.50;;;10.40;99.90;;;;;;5090868;28;20066;-82
2022/05/28 04:02:55;;;;;;;8.50;2.38;;;10.50;99.90;;;;;;5072125;28;20095;-85
2022/05/28 04:05:22;;;;;;;6.70;2.10;;;10.40;99.90;;;;;;5072403;28;20063;-83
2022/05/28 04:07:48;;;;;;;7.43;2.30;;;10.40;99.90;;;;;;5071647;28;20050;-84
2022/05/28 04:10:14;;;;;;;6.32;2.20;;;;;;;;;;5079652;28;20071;-84
2022/05/28 04:12:40;;;;;;;5.45;2.47;;;10.30;99.90;;;;;;5073651;28;20507;-83
2022/05/28 04:15:06;;;;;;;9.05;2.50;;;10.30;99.90;;;;;;5074041;28;20020;-82
2022/05/28 04:17:32;;;;;;;5.40;2.55;;;10.40;99.90;;;;;;5080300;28;20052;-84
2022/05/28 04:19:58;;;;;;;7.45;2.78;;;10.40;99.90;;;;;;5072291;28;20078;-84
2022/05/28 04:22:23;;;;;;;7.78;2.53;;;10.30;99.90;;;;;;5090644;28;20024;-81
2022/05/28 04:24:49;;;;;;;6.00;2.28;;;10.80;99.90;;;;;;5073592;28;20086;-82
2022/05/28 04:27:15;;;;;;;5.30;2.10;;;10.40;99.90;;;;;;5085314;28;20496;-79
2022/05/28 04:29:40;;;;;;;6.50;3.28;;;10.40;99.90;;;;;;5086267;28;20111;-81
2022/05/28 04:32:06;;;;;;;9.80;2.95;;;12.10;99.90;;;;;;5070495;28;20465;-83
2022/05/28 04:34:32;;;;;;;9.23;2.92;;;10.50;99.90;;;;;;5086583;28;20567;-83
2022/05/28 04:36:58;;;;;;;5.43;2.28;;;10.60;99.90;;;;;;5092137;28;20024;-84
2022/05/28 04:39:24;;;;;;;5.65;2.35;;;10.60;99.90;;;;;;5093127;28;20020;-82
2022/05/28 04:41:50;;;;;;;6.78;2.88;;;10.60;99.90;;;;;;5065865;28;20028;-83
2022/05/28 04:44:15;;;;;;;9.07;2.90;;;10.60;99.90;;;;;;5067227;28;20101;-84
2022/05/28 04:46:41;;;;;;;7.95;2.85;;;;;;;;;;5091802;28;20028;-82
2022/05/28 04:49:07;;;;;;;6.82;3.03;;;10.80;99.90;;;;;;5070603;28;20025;-81
2022/05/28 04:51:33;;;;;;;7.20;2.22;;;;;;;;;;5100095;28;20046;-81
2022/05/28 04:53:59;;;;;;;7.97;2.70;;;10.70;99.90;;;;;;5080111;28;20111;-82
2022/05/28 04:56:24;;;;;;;6.57;2.83;;;10.80;99.90;;;;;;5074273;28;20043;-82
2022/05/28 04:58:50;;;;;;;7.72;2.85;;;10.90;99.90;;;;;;5094002;28;20036;-83
2022/05/28 05:01:19;;;;;;;7.07;2.47;;;10.90;99.90;;;;;;5074004;28;20044;-83
2022/05/28 05:03:45;;;;;;;4.70;2.35;;;14.20;99.90;;;;;;5083311;28;20055;-84
2022/05/28 05:06:10;;;;;;;9.63;2.50;;;11.20;99.90;;;;;;5076073;28;20034;-84
2022/05/28 05:08:36;;;;;;;6.90;2.40;;;11.10;99.90;;;;;;5068139;28;20464;-83
2022/05/28 05:11:02;;;;;;;8.90;2.95;;;11.10;99.90;;;;;;5089365;28;20016;-84
2022/05/28 05:13:27;;;;;;;5.63;2.35;;;12.50;99.90;;;;;;5081900;28;20021;-81
2022/05/28 05:15:53;;;;;;;10.98;2.70;;;12.40;99.90;;;;;;5085732;28;20020;-85
2022/05/28 05:18:19;;;;;;;7.93;2.88;;;;;;;;;;5090989;28;20020;-84
2022/05/28 05:20:45;;;;;;;6.85;2.63;;;12.40;99.90;;;;;;5085074;28;20067;-82
2022/05/28 05:23:11;;;;;;;9.52;2.55;;;12.50;99.90;;;;;;5082550;28;20023;-83
2022/05/28 05:25:36;;;;;;;7.70;2.58;;;14.20;99.90;;;;;;5074982;28;20119;-85
2022/05/28 05:28:03;;;;;;;6.72;2.35;;;14.20;99.90;;;;;;5088316;28;20024;-83
2022/05/28 05:30:28;;;;;;;8.00;2.50;;;14.60;99.00;;;;;;5084467;28;20017;-82
2022/05/28 05:32:55;;;;;;;11.07;2.80;;;14.90;98.40;;;;;;5069618;28;20035;-81
2022/05/28 05:35:21;;;;;;;6.55;2.38;;;15.70;97.60;;;;;;5071155;28;20017;-84
2022/05/28 05:37:46;;;;;;;10.95;3.30;;;15.70;96.40;;;;;;5077977;28;20472;-83
2022/05/28 05:40:13;;;;;;;6.72;2.60;;;15.70;96.50;;;;;;5088764;28;20086;-82
2022/05/28 05:42:39;;;;;;;12.32;2.80;;;15.90;95.20;;;;;;5069362;28;20028;-82
2022/05/28 05:45:05;;;;;;;8.82;3.00;;;15.80;95.60;;;;;;5082095;28;20028;-82
2022/05/28 05:47:30;;;;;;;5.95;2.58;;;15.80;95.60;;;;;;5077814;28;20020;-82
2022/05/28 05:49:56;;;;;;;9.05;2.65;;;15.80;95.30;;;;;;5053014;28;20025;-81
2022/05/28 05:52:22;;;;;;;10.07;2.88;;;15.80;95.30;;;;;;5087248;28;20016;-84
2022/05/28 05:54:47;;;;;;;15.55;3.15;;;15.80;95.00;;;;;;5063241;28;20017;-83
2022/05/28 05:57:13;;;;;;;6.47;2.35;;;15.60;95.30;;;;;;5090554;28;20029;-83
2022/05/28 05:59:39;;;;;;;11.50;2.83;;;16.80;94.60;;;;;;5069381;28;20043;-84
2022/05/28 06:02:04;;;;;;;5.47;2.20;;;16.20;94.30;;;;;;5089977;28;20115;-83
2022/05/28 06:04:30;;;;;;;8.82;2.90;;;16.40;94.40;;;;;;5082535;28;20021;-81
2022/05/28 06:06:57;;;;;;;6.60;2.60;;;16.70;93.40;;;;;;5084843;28;20020;-82
2022/05/28 06:09:22;;;;;;;7.22;2.45;;;17.30;92.70;;;;;;5085066;28;20031;-82
2022/05/28 06:11:48;;;;;;;6.35;2.58;;;17.00;92.70;;;;;;5092827;28;20024;-84
2022/05/28 06:14:14;;;;;;;9.48;3.03;;;16.90;92.80;;;;;;5084525;28;20058;-81
2022/05/28 06:16:39;;;;;;;9.15;2.28;;;16.70;92.80;;;;;;5064105;28;20020;-82
2022/05/28 06:19:06;;;;;;;9.65;2.47;;;16.50;93.60;;;;;;5092024;28;20023;-82
2022/05/28 06:21:32;;;;;;;6.22;2.40;;;16.60;92.70;;;;;;5090302;28;20055;-80
2022/05/28 06:24:00;;;;;;;6.45;2.47;;;17.20;93.30;;;;;;5067827;28;20092;-81
2022/05/28 06:26:26;;;;;;;7.10;2.92;;;18.30;94.20;;;;;;5088728;28;20036;-84
2022/05/28 06:28:52;;;;;;;9.55;2.60;;;;;;;;;;5091374;28;20028;-83
2022/05/28 06:31:18;;;;;;;6.65;2.63;;;;;;;;;;5071294;28;20100;-83
2022/05/28 06:33:44;;;;;;;10.50;2.75;;;;;;;;;;5064725;28;20499;-81
2022/05/28 06:36:11;;;;;;;7.95;2.72;;;15.50;94.20;;;;;;5072703;28;20027;-84
2022/05/28 06:38:37;;;;;;;8.57;2.70;;;15.50;94.40;;;;;;5087275;28;20055;-83
2022/05/28 06:41:03;;;;;;;8.30;2.50;;;15.40;94.70;;;;;;5080713;28;20028;-83
2022/05/28 06:43:29;;;;;;;10.88;3.00;;;;;;;;;;5087455;28;20022;-84
2022/05/28 06:45:56;;;;;;;7.28;2.25;;;;;;;;;;5093184;28;20495;-83
2022/05/28 06:48:22;;;;;;;10.32;2.60;;;15.80;93.80;;;;;;5083428;28;20055;-84
2022/05/28 06:51:03;;;;;;;7.38;2.20;;;15.70;94.20;;;;;;5083726;28;20028;-85
2022/05/28 06:53:38;;;;;;;7.05;2.05;;;17.40;94.30;;;;;;5095822;28;20340;-85
2022/05/28 06:56:05;;;;;;;9.48;2.80;;;15.70;93.70;;;;;;5073925;28;20028;-80
2022/05/28 06:58:31;;;;;;;9.60;2.20;;;15.70;93.50;;;;;;5090394;28;20035;-82
2022/05/28 07:00:56;;;;;;;7.28;1.80;;;15.90;93.30;;;;;;5085268;28;20104;-84
2022/05/28 07:03:26;;;;;;;10.15;2.97;;;15.80;92.40;;;;;;5076853;28;20028;-85
2022/05/28 07:05:52;;;;;;;11.10;1.88;;;18.70;93.40;;;;;;5080100;28;20024;-82
2022/05/28 07:08:18;;;;;;;11.13;2.25;;;;;;;;;;5087744;28;20082;-82
2022/05/28 07:10:47;;;;;;;10.00;2.08;;;16.00;92.30;;;;;;5074936;28;20036;-85
2022/05/28 07:13:13;;;;;;;9.40;2.53;;;;;;;;;;5089532;28;20463;-80
2022/05/28 07:15:40;;;;;;;8.98;2.20;;;;;;;;;;5068390;28;20028;-83
2022/05/28 07:18:06;;;;;;;7.15;2.08;;;16.10;92.10;;;;;;5073740;28;20476;-84
2022/05/28 07:20:32;;;;;;;11.70;2.20;;;;;;;;;;5072694;28;20089;-83
2022/05/28 07:22:58;;;;;;;7.07;2.05;;;;;;;;;;5087087;28;20421;-82
2022/05/28 07:25:24;;;;;;;9.52;2.05;;;16.40;91.60;;;;;;5099188;28;20056;-84
2022/05/28 07:27:49;;;;;;;11.73;2.35;;;16.10;91.70;;;;;;5075239;28;20392;-83
2022/05/28 07:30:16;;;;;;;10.32;2.13;;;16.20;91.50;;;;;;5078850;28;20025;-84
2022/05/28 07:32:42;;;;;;;13.75;1.92;;;;;;;;;;5079703;28;20023;-83
2022/05/28 07:35:08;;;;;;;9.63;2.00;;;;;;;;;;5066059;28;20399;-83
2022/05/28 07:37:34;;;;;;;7.70;2.03;;;;;;;;;;5069230;28;20060;-82
2022/05/28 07:40:00;;;;;;;6.35;1.50;;;;;;;;;;5088447;28;20579;-83
2022/05/28 07:42:27;;;;;;;11.75;5.57;;;;;;;;;;5063054;28;20063;-83
2022/05/28 07:44:53;;;;;;;7.20;1.92;;;;;;;;;;5094693;28;20047;-85
2022/05/28 07:47:19;;;;;;;5.88;1.60;;;;;;;;;;5054575;28;20062;-84
2022/05/28 07:49:45;;;;;;;13.60;2.42;;;;;;;;;;5087313;28;20441;-82
2022/05/28 07:52:11;;;;;;;6.97;1.80;;;;;;;;;;5082908;28;20035;-83
2022/05/28 07:54:37;;;;;;;8.95;1.90;;;16.80;90.80;;;;;;5071401;28;20101;-83
2022/05/28 07:57:04;;;;;;;6.97;2.28;;;16.80;91.00;;;;;;5081893;28;20379;-82
2022/05/28 07:59:30;;;;;;;8.52;1.80;;;;;;;;;;5077261;28;20028;-83
2022/05/28 08:01:57;;;;;;;9.50;2.17;;;;;;;;;;5087188;28;20411;-81
2022/05/28 08:04:23;;;;;;;7.40;1.70;;;;;;;;;;5065537;28;20031;-82
2022/05/28 08:06:49;;;;;;;7.43;1.83;;;;;;;;;;5070690;28;20032;-83
2022/05/28 08:09:15;;;;;;;7.20;1.70;;;;;;;;;;5090892;28;20056;-82
2022/05/28 08:11:41;;;;;;;10.77;2.00;;;;;;;;;;5085400;28;20021;-84
2022/05/28 08:14:07;;;;;;;9.35;1.80;;;17.30;90.00;;;;;;5073695;28;20032;-82
2022/05/28 08:16:33;;;;;;;7.45;2.05;;;;;;;;;;5076762;28;20032;-82
2022/05/28 08:18:59;;;;;;;8.27;1.75;;;17.60;89.70;;;;;;5087683;28;20052;-84
2022/05/28 08:24:09;;;;;;;5.95;1.75;;;17.80;87.60;;;;;;5077736;28;20035;-82
2022/05/28 08:26:35;;;;;;;6.72;1.73;;;17.90;87.60;;;;;;5070201;28;20025;-82
2022/05/28 08:29:02;;;;;;;8.65;1.60;;;17.80;86.70;;;;;;5090783;28;20467;-83
2022/05/28 08:31:29;;;;;;;5.43;1.67;;;18.90;87.90;;;;;;5091623;28;20032;-82
2022/05/28 08:33:56;;;;;;;8.68;1.90;;;18.60;87.60;;;;;;5068823;28;20025;-84
2022/05/28 08:36:22;;;;;;;5.10;1.83;;;18.70;87.40;;;;;;5095512;28;20025;-80
2022/05/28 08:38:48;;;;;;;4.82;1.70;;;18.30;85.80;;;;;;5082281;28;20024;-82
2022/05/28 08:41:20;;;;;;;6.75;1.63;;;18.50;84.30;;;;;;5088990;28;20051;-85
2022/05/28 08:44:12;;;;;;;6.65;1.58;;;18.60;85.40;;;;;;5060495;28;20108;-83
2022/05/28 08:46:38;;;;;;;6.32;1.75;;;18.60;84.20;;;;;;5088633;28;20048;-83
2022/05/28 08:49:06;;;;;;;5.85;1.58;;;18.80;84.00;;;;;;5066135;28;20066;-81
2022/05/28 08:52:00;;;;;;;15.52;7.55;;;18.90;84.50;;;;;;5067932;28;20026;-82
2022/05/28 08:54:36;;;;;;;7.13;1.80;;;18.90;82.80;;;;;;5072762;28;20050;-83
2022/05/28 08:57:13;;;;;;;9.30;2.55;;;19.20;79.50;;;;;;5087697;28;20078;-83
2022/05/28 08:59:52;;;;;;;8.55;1.63;;;19.30;79.60;;;;;;5063813;28;20085;-81
2022/05/28 09:02:34;;;;;;;4.25;1.45;;;19.30;78.70;;;;;;5062735;28;20491;-82
2022/05/28 09:05:01;;;;;;;5.85;1.48;;;19.40;80.60;;;;;;5096389;28;20044;-83
2022/05/28 09:07:27;;;;;;;6.28;1.52;;;19.50;79.40;;;;;;5080975;28;20035;-82
2022/05/28 09:09:54;;;;;;;5.65;1.40;;;19.30;78.30;;;;;;5065241;28;20025;-83
2022/05/28 09:12:30;;;;;;;7.43;1.73;;;19.70;78.40;;;;;;5090921;28;20017;-82
2022/05/28 09:14:56;;;;;;;4.85;1.30;;;19.30;77.70;;;;;;5090781;28;20023;-84
2022/05/28 09:17:33;;;;;;;5.63;1.50;;;19.30;77.70;;;;;;5069444;28;20029;-81
2022/05/28 09:20:05;;;;;;;7.35;1.70;;;19.20;79.10;;;;;;5077072;28;20029;-82
2022/05/28 09:22:31;;;;;;;7.55;1.30;;;19.30;78.10;;;;;;5092517;28;20107;-84
2022/05/28 09:24:57;;;;;;;6.78;1.42;;;19.20;77.50;;;;;;5082597;28;20012;-84
2022/05/28 09:27:44;;;;;;;8.65;1.73;;;20.30;78.00;;;;;;5110138;28;20032;-86
2022/05/28 09:30:19;;;;;;;6.43;1.30;;;19.40;76.60;;;;;;5090513;28;20020;-84
2022/05/28 09:32:57;;;;;;;5.75;1.30;;;19.50;75.30;;;;;;5086642;28;20035;-83
2022/05/28 09:35:50;;;;;;;5.07;1.35;;;19.50;75.00;;;;;;5094187;28;20020;-83
2022/05/28 09:38:42;;;;;;;3.70;1.15;;;19.40;74.80;;;;;;5073083;28;20028;-85
2022/05/28 09:41:49;;;;;;;8.25;1.63;;;19.60;75.90;;;;;;5080297;28;20021;-82
2022/05/28 09:44:40;;;;;;;6.03;1.50;;;19.70;75.00;;;;;;5077062;28;20028;-84
2022/05/28 09:47:11;;;;;;;6.15;1.55;;;19.80;72.90;;;;;;5094936;28;20035;-84
2022/05/28 09:49:56;;;;;;;8.27;1.20;;;19.50;73.50;;;;;;5078413;28;20033;-82
2022/05/28 09:52:23;;;;;;;4.80;1.50;;;19.50;74.10;;;;;;5072931;28;20028;-82
2022/05/28 09:54:49;;;;;;;4.70;1.20;;;19.00;74.80;;;;;;5082056;28;20046;-82
2022/05/28 09:57:24;;;;;;;5.78;1.50;;;19.50;75.00;;;;;;5080749;28;20051;-83
2022/05/28 10:00:03;;;;;;;7.40;1.70;;;19.00;75.90;;;;;;5088865;28;20084;-82
2022/05/28 10:04:28;;;;;;;5.95;1.45;;;18.70;76.20;;;;;;5090608;28;20027;-81
2022/05/28 10:05:32;;;;;;;7.75;1.90;;;18.70;76.40;;;;;;5085473;28;20028;-82
2022/05/28 10:08:09;;;;;;;5.18;1.55;;;18.40;77.10;;;;;;5057392;28;20040;-83
2022/05/28 10:10:38;;;;;;;6.25;1.95;;;18.50;77.70;;;;;;5088904;28;20025;-81
2022/05/28 10:13:19;;;;;;;5.80;1.80;;;18.50;76.80;;;;;;5090951;28;20020;-83
2022/05/28 10:15:49;;;;;;;4.97;1.58;;;18.80;76.00;;;;;;5077773;28;20078;-82
2022/05/28 10:18:45;;;;;;;3.92;1.23;;;18.70;75.30;;;;;;5066974;28;20361;-80
2022/05/28 10:21:10;;;;;;;3.45;1.20;;;18.50;74.00;;;;;;5087793;28;20097;-82
2022/05/28 10:23:39;;;;;;;6.63;1.45;;;18.50;73.70;;;;;;5093687;28;20017;-81
2022/05/28 10:26:04;;;;;;;3.83;1.15;;;18.90;73.00;;;;;;5072635;28;20021;-84
2022/05/28 10:28:40;;;;;;;6.22;1.60;;;20.10;73.20;;;;;;5090575;28;20031;-82
2022/05/28 10:31:28;;;;;;;5.18;1.80;;;19.20;71.70;;;;;;5096291;28;20384;-81
2022/05/28 10:33:53;;;;;;;5.50;1.40;;;19.30;72.30;;;;;;5087318;28;20025;-81
2022/05/28 10:36:29;;;;;;;5.00;1.30;;;19.50;70.20;;;;;;5067782;28;20027;-83
2022/05/28 10:39:27;;;;;;;5.13;1.40;;;19.50;68.60;;;;;;5073790;28;20024;-81
2022/05/28 10:41:53;;;;;;;5.03;1.50;;;19.50;69.90;;;;;;5017980;28;20032;-83
2022/05/28 10:44:19;;;;;;;4.68;1.23;;;19.70;68.80;;;;;;5087658;28;20491;-81
2022/05/28 10:46:51;;;;;;;5.60;1.20;;;20.20;69.00;;;;;;5085622;28;20484;-83
2022/05/28 10:49:38;;;;;;;3.22;1.50;;;19.80;68.60;;;;;;5087976;28;20038;-80
2022/05/28 10:52:22;;;;;;;5.22;1.30;;;19.70;67.80;;;;;;5084499;28;20081;-79
2022/05/28 10:55:18;;;;;;;4.57;1.35;;;19.70;66.60;;;;;;5073989;28;20497;-84
2022/05/28 10:57:43;;;;;;;4.95;1.30;;;19.70;66.00;;;;;;5086754;28;20046;-81
2022/05/28 11:00:21;;;;;;;5.85;1.40;;;19.80;65.10;;;;;;5066086;28;20476;-81
2022/05/28 11:02:55;;;;;;;4.63;1.48;;;20.00;65.10;;;;;;5086331;28;20038;-81
2022/05/28 11:05:46;;;;;;;3.55;0.90;;;20.20;64.70;;;;;;5067052;28;20023;-80
2022/05/28 11:08:38;;;;;;;3.42;1.10;;;20.20;63.90;;;;;;5063949;28;20092;-81
2022/05/28 11:11:09;;;;;;;3.47;1.23;;;20.40;62.70;;;;;;5076289;28;20028;-84
2022/05/28 11:13:52;;;;;;;4.68;1.08;;;20.60;63.10;;;;;;5075575;28;20044;-81
2022/05/28 11:16:24;;;;;;;3.17;1.17;;;21.00;62.40;;;;;;5077506;28;20488;-83
2022/05/28 11:19:04;;;;;;;5.20;1.40;;;21.20;61.10;;;;;;5068459;28;20083;-84
2022/05/28 11:21:55;;;;;;;3.00;1.20;;;21.30;60.90;;;;;;5066901;28;20535;-80
2022/05/28 11:24:45;;;;;;;4.00;1.30;;;21.30;59.70;;;;;;5066364;28;20024;-82
2022/05/28 11:27:46;;;;;;;2.30;1.20;;;21.20;60.00;;;;;;5068013;28;20046;-82
2022/05/28 11:30:18;;;;;;;7.47;1.52;;;20.90;61.00;;;;;;5060034;28;20495;-82
2022/05/28 11:32:55;;;;;;;4.25;1.77;;;20.60;60.60;;;;;;5096208;28;20029;-81
2022/05/28 11:35:42;;;;;;;4.88;1.30;;;20.10;61.00;;;;;;5073927;28;20032;-82
2022/05/28 11:38:17;;;;;;;3.90;0.93;;;20.00;61.50;;;;;;5079129;28;20375;-84
2022/05/28 11:41:18;;;;;;;3.17;1.13;;;20.00;63.10;;;;;;5086211;28;20052;-82
2022/05/28 11:44:02;;;;;;;3.40;1.20;;;20.00;63.40;;;;;;5063878;28;20044;-82
2022/05/28 11:46:39;;;;;;;3.17;1.17;;;20.00;63.60;;;;;;5090224;28;20024;-84
2022/05/28 11:52:21;;;;;;;4.50;1.17;;;20.10;64.00;;;;;;5087316;28;20024;-82
2022/05/28 11:54:53;;;;;;;3.05;1.23;;;20.20;63.30;;;;;;5068176;28;20017;-81
2022/05/28 11:57:30;;;;;;;5.88;1.10;;;20.50;63.60;;;;;;5079226;28;20020;-84
2022/05/28 11:59:58;;;;;;;4.28;1.48;;;20.40;63.90;;;;;;5089130;28;20028;-84
2022/05/28 12:02:29;;;;;;;3.33;1.40;;;20.50;63.90;;;;;;5071971;28;20031;-83
2022/05/28 12:04:55;;;;;;;4.70;1.20;;;20.30;63.80;;;;;;5091433;28;20031;-83
2022/05/28 12:07:37;;;;;;;5.20;1.30;;;20.00;64.30;;;;;;5062250;28;20519;-82
2022/05/28 12:10:11;;;;;;;3.92;1.27;;;19.90;64.40;;;;;;5068541;28;20403;-82
2022/05/28 12:12:58;;;;;;;2.88;1.30;;;19.80;65.10;;;;;;5072021;28;20020;-83
2022/05/28 12:15:27;;;;;;;2.65;1.10;;;20.00;64.20;;;;;;5074045;28;20024;-83
2022/05/28 12:18:14;;;;;;;4.70;1.40;;;20.90;64.00;;;;;;5091069;28;20028;-83
2022/05/28 12:20:53;;;;;;;5.78;1.00;;;20.90;62.50;;;;;;5061305;28;20020;-81
2022/05/28 12:23:29;;;;;;;4.38;1.23;;;20.80;61.90;;;;;;5069768;28;20025;-83
2022/05/28 12:25:55;;;;;;;7.15;1.42;;;20.90;62.10;;;;;;5083019;28;20031;-83
2022/05/28 12:28:26;;;;;;;3.08;1.35;;;21.10;62.00;;;;;;5073596;28;20024;-83
2022/05/28 12:30:54;;;;;;;3.50;1.13;;;20.70;60.30;;;;;;5093190;28;20040;-80
2022/05/28 12:33:32;;;;;;;4.50;1.13;;;20.70;60.80;;;;;;5076174;28;20043;-83
2022/05/28 12:36:08;;;;;;;3.38;1.20;;;20.60;59.50;;;;;;5098069;28;20019;-83
2022/05/28 12:38:52;;;;;;;4.03;1.20;;;20.40;60.80;;;;;;5099645;28;20080;-80
2022/05/28 12:41:20;;;;;;;3.10;1.23;;;20.60;62.00;;;;;;5074603;28;20445;-82
2022/05/28 12:44:12;;;;;;;3.28;1.08;;;20.50;62.30;;;;;;5096274;28;20020;-82
2022/05/28 12:46:54;;;;;;;5.85;1.10;;;20.60;62.50;;;;;;5061118;28;20078;-82
2022/05/28 12:49:43;;;;;;;3.58;1.20;;;20.60;62.30;;;;;;5054921;28;20408;-83
2022/05/28 12:52:40;;;;;;;3.42;1.10;;;20.50;61.90;;;;;;5069103;28;20024;-82
2022/05/28 12:55:29;;;;;;;4.55;1.33;;;20.50;62.10;;;;;;5093020;28;20503;-83
2022/05/28 12:58:06;;;;;;;3.97;1.23;;;20.40;62.30;;;;;;5087401;28;20171;-83
2022/05/28 13:00:47;;;;;;;3.38;1.10;;;20.50;63.40;;;;;;5076269;28;20028;-82
2022/05/28 13:03:16;;;;;;;4.45;1.23;;;20.60;63.10;;;;;;5078965;28;20026;-84
2022/05/28 13:05:47;;;;;;;4.63;1.52;;;20.50;62.90;;;;;;5093553;28;20042;-83
2022/05/28 13:08:24;;;;;;;5.25;1.50;;;20.60;62.20;;;;;;5073254;28;20028;-83
2022/05/28 13:10:57;;;;;;;5.20;1.80;;;20.50;63.00;;;;;;5084794;28;20046;-83
2022/05/28 13:14:00;;;;;;;4.45;1.63;;;21.50;63.70;;;;;;5075794;28;20353;-83
2022/05/28 13:16:51;;;;;;;4.53;1.27;;;20.30;63.10;;;;;;5069497;28;20078;-82
2022/05/28 13:19:36;;;;;;;10.00;1.83;;;20.30;63.70;;;;;;5061612;28;20040;-83
2022/05/28 13:22:21;;;;;;;5.25;1.60;;;20.20;64.40;;;;;;5070434;28;20032;-82
2022/05/28 13:25:05;;;;;;;5.85;3.35;;;20.10;64.10;;;;;;5089240;28;20028;-84